sensor_id;sensor_type;location;lat;lon;timestamp;P1;durP1;ratioP1;P2;durP2;ratioP2
1010;SDS011;494;48.744;10.106;2023-04-01T00:27:21;9.67;;;2.00;;
1010;SDS011;494;48.744;10.106;2023-04-01T00:30:26;7.83;;;2.10;;
1010;SDS011;494;48.744;10.106;2023-04-01T00:33:01;8.40;;;2.50;;
1010;SDS011;494;48.744;10.106;2023-04-01T00:35:36;9.63;;;2.20;;
1010;SDS011;494;48.744;10.106;2023-04-01T00:38:07;7.57;;;2.10;;
1010;SDS011;494;48.744;10.106;2023-04-01T00:40:41;7.60;;;2.53;;
1010;SDS011;494;48.744;10.106;2023-04-01T00:44:18;7.33;;;1.80;;
1010;SDS011;494;48.744;10.106;2023-04-01T00:46:51;7.10;;;2.23;;
1010;SDS011;494;48.744;10.106;2023-04-01T00:49:21;6.93;;;2.07;;
1010;SDS011;494;48.744;10.106;2023-04-01T00:51:58;7.60;;;2.30;;
1010;SDS011;494;48.744;10.106;2023-04-01T00:54:32;6.47;;;1.77;;
1010;SDS011;494;48.744;10.106;2023-04-01T00:57:04;7.70;;;2.03;;
1010;SDS011;494;48.744;10.106;2023-04-01T00:59:41;6.77;;;1.90;;
1010;SDS011;494;48.744;10.106;2023-04-01T01:02:13;7.60;;;2.30;;
1010;SDS011;494;48.744;10.106;2023-04-01T01:04:43;10.87;;;3.30;;
1010;SDS011;494;48.744;10.106;2023-04-01T01:07:15;7.27;;;1.93;;
1010;SDS011;494;48.744;10.106;2023-04-01T01:09:59;7.03;;;2.13;;
1010;SDS011;494;48.744;10.106;2023-04-01T01:12:35;9.37;;;3.27;;
1010;SDS011;494;48.744;10.106;2023-04-01T01:15:15;8.30;;;2.50;;
1010;SDS011;494;48.744;10.106;2023-04-01T01:17:54;8.90;;;3.20;;
1010;SDS011;494;48.744;10.106;2023-04-01T01:27:10;8.90;;;3.30;;
1010;SDS011;494;48.744;10.106;2023-04-01T01:33:06;7.93;;;3.20;;
1010;SDS011;494;48.744;10.106;2023-04-01T01:36:01;8.13;;;3.10;;
1010;SDS011;494;48.744;10.106;2023-04-01T01:38:34;7.70;;;2.97;;
1010;SDS011;494;48.744;10.106;2023-04-01T01:41:05;8.30;;;2.43;;
1010;SDS011;494;48.744;10.106;2023-04-01T01:43:38;7.30;;;3.10;;
1010;SDS011;494;48.744;10.106;2023-04-01T01:46:13;9.87;;;4.40;;
1010;SDS011;494;48.744;10.106;2023-04-01T01:48:52;11.07;;;3.40;;
1010;SDS011;494;48.744;10.106;2023-04-01T01:51:25;7.37;;;3.97;;
1010;SDS011;494;48.744;10.106;2023-04-01T01:53:56;12.37;;;4.10;;
1010;SDS011;494;48.744;10.106;2023-04-01T01:56:25;9.90;;;4.70;;
1010;SDS011;494;48.744;10.106;2023-04-01T01:58:59;8.00;;;3.60;;
1010;SDS011;494;48.744;10.106;2023-04-01T02:01:35;8.90;;;3.70;;
1010;SDS011;494;48.744;10.106;2023-04-01T02:04:08;8.70;;;4.10;;
1010;SDS011;494;48.744;10.106;2023-04-01T02:06:44;9.30;;;4.40;;
1010;SDS011;494;48.744;10.106;2023-04-01T02:09:20;7.57;;;3.93;;
1010;SDS011;494;48.744;10.106;2023-04-01T02:11:51;8.50;;;3.73;;
1010;SDS011;494;48.744;10.106;2023-04-01T02:14:26;6.47;;;3.10;;
1010;SDS011;494;48.744;10.106;2023-04-01T02:17:00;8.17;;;4.00;;
1010;SDS011;494;48.744;10.106;2023-04-01T02:19:36;9.73;;;4.20;;
1010;SDS011;494;48.744;10.106;2023-04-01T02:22:13;9.07;;;3.47;;
1010;SDS011;494;48.744;10.106;2023-04-01T02:24:48;9.07;;;3.50;;
1010;SDS011;494;48.744;10.106;2023-04-01T02:27:20;7.53;;;3.77;;
1010;SDS011;494;48.744;10.106;2023-04-01T02:29:49;9.10;;;4.40;;
1010;SDS011;494;48.744;10.106;2023-04-01T02:32:18;10.60;;;4.30;;
1010;SDS011;494;48.744;10.106;2023-04-01T02:34:48;10.60;;;4.30;;
1010;SDS011;494;48.744;10.106;2023-04-01T02:37:20;6.90;;;4.30;;
1010;SDS011;494;48.744;10.106;2023-04-01T02:39:49;7.30;;;3.90;;
1010;SDS011;494;48.744;10.106;2023-04-01T02:42:22;7.87;;;3.30;;
1010;SDS011;494;48.744;10.106;2023-04-01T02:44:50;9.60;;;4.37;;
1010;SDS011;494;48.744;10.106;2023-04-01T02:47:20;6.60;;;3.80;;
1010;SDS011;494;48.744;10.106;2023-04-01T02:49:48;9.10;;;3.50;;
1010;SDS011;494;48.744;10.106;2023-04-01T02:52:26;10.50;;;4.03;;
1010;SDS011;494;48.744;10.106;2023-04-01T02:54:56;6.30;;;3.50;;
1010;SDS011;494;48.744;10.106;2023-04-01T02:57:27;8.90;;;3.77;;
1010;SDS011;494;48.744;10.106;2023-04-01T02:59:56;6.00;;;2.80;;
1010;SDS011;494;48.744;10.106;2023-04-01T03:02:25;6.73;;;2.60;;
1010;SDS011;494;48.744;10.106;2023-04-01T03:04:54;7.43;;;3.20;;
1010;SDS011;494;48.744;10.106;2023-04-01T03:07:23;7.10;;;3.37;;
1010;SDS011;494;48.744;10.106;2023-04-01T03:09:54;6.70;;;3.03;;
1010;SDS011;494;48.744;10.106;2023-04-01T03:12:23;6.37;;;3.40;;
1010;SDS011;494;48.744;10.106;2023-04-01T03:14:52;8.33;;;3.87;;
1010;SDS011;494;48.744;10.106;2023-04-01T03:17:21;7.93;;;3.37;;
1010;SDS011;494;48.744;10.106;2023-04-01T03:19:51;7.40;;;3.43;;
1010;SDS011;494;48.744;10.106;2023-04-01T03:22:19;7.57;;;1.90;;
1010;SDS011;494;48.744;10.106;2023-04-01T03:24:50;7.40;;;2.03;;
1010;SDS011;494;48.744;10.106;2023-04-01T03:27:19;7.17;;;2.17;;
1010;SDS011;494;48.744;10.106;2023-04-01T03:29:48;6.87;;;1.57;;
1010;SDS011;494;48.744;10.106;2023-04-01T03:32:17;5.77;;;1.30;;
1010;SDS011;494;48.744;10.106;2023-04-01T03:34:46;5.73;;;1.17;;
1010;SDS011;494;48.744;10.106;2023-04-01T03:37:16;5.70;;;1.20;;
1010;SDS011;494;48.744;10.106;2023-04-01T03:39:45;5.83;;;1.17;;
1010;SDS011;494;48.744;10.106;2023-04-01T03:42:15;7.10;;;1.10;;
1010;SDS011;494;48.744;10.106;2023-04-01T03:44:45;6.10;;;1.50;;
1010;SDS011;494;48.744;10.106;2023-04-01T03:47:14;6.20;;;1.40;;
1010;SDS011;494;48.744;10.106;2023-04-01T03:49:43;5.60;;;1.00;;
1010;SDS011;494;48.744;10.106;2023-04-01T03:52:12;5.50;;;1.17;;
1010;SDS011;494;48.744;10.106;2023-04-01T03:54:42;6.10;;;1.53;;
1010;SDS011;494;48.744;10.106;2023-04-01T03:57:11;9.60;;;1.57;;
1010;SDS011;494;48.744;10.106;2023-04-01T03:59:43;9.37;;;1.97;;
1010;SDS011;494;48.744;10.106;2023-04-01T04:02:12;5.70;;;1.13;;
1010;SDS011;494;48.744;10.106;2023-04-01T04:04:41;6.53;;;1.03;;
1010;SDS011;494;48.744;10.106;2023-04-01T04:07:10;6.10;;;1.40;;
1010;SDS011;494;48.744;10.106;2023-04-01T04:09:39;6.23;;;1.80;;
1010;SDS011;494;48.744;10.106;2023-04-01T04:12:08;6.50;;;1.60;;
1010;SDS011;494;48.744;10.106;2023-04-01T04:14:38;5.70;;;1.60;;
1010;SDS011;494;48.744;10.106;2023-04-01T04:17:09;6.37;;;1.60;;
1010;SDS011;494;48.744;10.106;2023-04-01T04:19:42;6.20;;;1.40;;
1010;SDS011;494;48.744;10.106;2023-04-01T04:22:11;6.30;;;1.60;;
1010;SDS011;494;48.744;10.106;2023-04-01T04:24:40;7.60;;;1.73;;
1010;SDS011;494;48.744;10.106;2023-04-01T04:27:09;8.83;;;1.30;;
1010;SDS011;494;48.744;10.106;2023-04-01T04:29:38;5.97;;;1.60;;
1010;SDS011;494;48.744;10.106;2023-04-01T04:32:09;7.07;;;1.70;;
1010;SDS011;494;48.744;10.106;2023-04-01T04:34:38;8.47;;;2.00;;
1010;SDS011;494;48.744;10.106;2023-04-01T04:37:07;7.90;;;1.90;;
1010;SDS011;494;48.744;10.106;2023-04-01T04:39:36;6.50;;;1.80;;
1010;SDS011;494;48.744;10.106;2023-04-01T04:42:05;6.80;;;1.73;;
1010;SDS011;494;48.744;10.106;2023-04-01T04:44:34;6.10;;;1.60;;
1010;SDS011;494;48.744;10.106;2023-04-01T04:47:03;6.10;;;1.80;;
1010;SDS011;494;48.744;10.106;2023-04-01T04:49:33;6.80;;;2.27;;
1010;SDS011;494;48.744;10.106;2023-04-01T04:52:02;6.60;;;2.37;;
1010;SDS011;494;48.744;10.106;2023-04-01T04:54:31;6.40;;;2.50;;
1010;SDS011;494;48.744;10.106;2023-04-01T04:57:01;8.60;;;2.60;;
1010;SDS011;494;48.744;10.106;2023-04-01T04:59:31;6.70;;;2.67;;
1010;SDS011;494;48.744;10.106;2023-04-01T05:02:00;7.70;;;2.23;;
1010;SDS011;494;48.744;10.106;2023-04-01T05:04:35;8.13;;;2.80;;
1010;SDS011;494;48.744;10.106;2023-04-01T05:07:05;6.80;;;2.63;;
1010;SDS011;494;48.744;10.106;2023-04-01T05:09:34;6.20;;;2.03;;
1010;SDS011;494;48.744;10.106;2023-04-01T05:12:04;6.87;;;2.90;;
1010;SDS011;494;48.744;10.106;2023-04-01T05:14:35;7.33;;;3.00;;
1010;SDS011;494;48.744;10.106;2023-04-01T05:17:07;6.30;;;2.20;;
1010;SDS011;494;48.744;10.106;2023-04-01T05:19:40;6.87;;;2.70;;
1010;SDS011;494;48.744;10.106;2023-04-01T05:22:10;5.90;;;2.30;;
1010;SDS011;494;48.744;10.106;2023-04-01T05:24:40;6.40;;;2.90;;
1010;SDS011;494;48.744;10.106;2023-04-01T05:27:10;6.23;;;2.90;;
1010;SDS011;494;48.744;10.106;2023-04-01T05:29:39;6.90;;;2.70;;
1010;SDS011;494;48.744;10.106;2023-04-01T05:32:09;6.93;;;2.43;;
1010;SDS011;494;48.744;10.106;2023-04-01T05:34:41;6.73;;;2.70;;
1010;SDS011;494;48.744;10.106;2023-04-01T05:37:11;7.37;;;2.60;;
1010;SDS011;494;48.744;10.106;2023-04-01T05:39:41;7.27;;;3.07;;
1010;SDS011;494;48.744;10.106;2023-04-01T05:42:10;6.80;;;3.63;;
1010;SDS011;494;48.744;10.106;2023-04-01T05:44:40;6.60;;;3.20;;
1010;SDS011;494;48.744;10.106;2023-04-01T05:47:09;6.70;;;3.50;;
1010;SDS011;494;48.744;10.106;2023-04-01T05:49:38;7.37;;;3.30;;
1010;SDS011;494;48.744;10.106;2023-04-01T05:52:09;6.20;;;3.10;;
1010;SDS011;494;48.744;10.106;2023-04-01T05:54:38;6.07;;;2.70;;
1010;SDS011;494;48.744;10.106;2023-04-01T05:57:08;6.43;;;3.30;;
1010;SDS011;494;48.744;10.106;2023-04-01T05:59:37;6.30;;;3.00;;
1010;SDS011;494;48.744;10.106;2023-04-01T06:02:07;6.90;;;3.23;;
1010;SDS011;494;48.744;10.106;2023-04-01T06:04:38;7.10;;;3.40;;
1010;SDS011;494;48.744;10.106;2023-04-01T06:07:11;7.10;;;3.67;;
1010;SDS011;494;48.744;10.106;2023-04-01T06:09:41;6.47;;;3.50;;
1010;SDS011;494;48.744;10.106;2023-04-01T06:12:29;6.87;;;3.50;;
1010;SDS011;494;48.744;10.106;2023-04-01T06:15:16;7.40;;;3.90;;
1010;SDS011;494;48.744;10.106;2023-04-01T06:18:00;7.23;;;3.43;;
1010;SDS011;494;48.744;10.106;2023-04-01T06:21:01;7.80;;;3.77;;
1010;SDS011;494;48.744;10.106;2023-04-01T06:23:52;7.43;;;4.10;;
1010;SDS011;494;48.744;10.106;2023-04-01T06:26:40;7.17;;;3.87;;
1010;SDS011;494;48.744;10.106;2023-04-01T06:29:25;7.90;;;3.63;;
1010;SDS011;494;48.744;10.106;2023-04-01T06:32:40;6.60;;;3.37;;
1010;SDS011;494;48.744;10.106;2023-04-01T06:35:29;10.30;;;3.53;;
1010;SDS011;494;48.744;10.106;2023-04-01T06:41:51;8.93;;;3.30;;
1010;SDS011;494;48.744;10.106;2023-04-01T06:45:16;8.03;;;3.30;;
1010;SDS011;494;48.744;10.106;2023-04-01T06:48:06;8.87;;;4.13;;
1010;SDS011;494;48.744;10.106;2023-04-01T06:50:52;8.70;;;4.83;;
1010;SDS011;494;48.744;10.106;2023-04-01T06:53:28;7.53;;;5.00;;
1010;SDS011;494;48.744;10.106;2023-04-01T06:56:16;10.13;;;5.43;;
1010;SDS011;494;48.744;10.106;2023-04-01T06:58:50;8.17;;;4.43;;
1010;SDS011;494;48.744;10.106;2023-04-01T07:01:25;7.80;;;4.70;;
1010;SDS011;494;48.744;10.106;2023-04-01T07:04:03;10.50;;;4.93;;
1010;SDS011;494;48.744;10.106;2023-04-01T07:06:43;9.10;;;5.30;;
1010;SDS011;494;48.744;10.106;2023-04-01T07:09:20;9.33;;;5.20;;
1010;SDS011;494;48.744;10.106;2023-04-01T07:11:59;8.20;;;5.13;;
1010;SDS011;494;48.744;10.106;2023-04-01T07:14:39;7.90;;;4.73;;
1010;SDS011;494;48.744;10.106;2023-04-01T07:17:12;7.43;;;4.30;;
1010;SDS011;494;48.744;10.106;2023-04-01T07:19:50;10.73;;;5.03;;
1010;SDS011;494;48.744;10.106;2023-04-01T07:22:27;7.10;;;4.23;;
1010;SDS011;494;48.744;10.106;2023-04-01T07:25:03;8.23;;;4.73;;
1010;SDS011;494;48.744;10.106;2023-04-01T07:27:42;7.60;;;4.80;;
1010;SDS011;494;48.744;10.106;2023-04-01T07:30:13;7.13;;;4.50;;
1010;SDS011;494;48.744;10.106;2023-04-01T07:32:46;8.33;;;4.33;;
1010;SDS011;494;48.744;10.106;2023-04-01T07:35:23;7.27;;;4.33;;
1010;SDS011;494;48.744;10.106;2023-04-01T07:38:02;7.17;;;4.50;;
1010;SDS011;494;48.744;10.106;2023-04-01T07:40:54;7.80;;;4.70;;
1010;SDS011;494;48.744;10.106;2023-04-01T07:43:47;7.53;;;4.70;;
1010;SDS011;494;48.744;10.106;2023-04-01T07:46:34;10.13;;;5.00;;
1010;SDS011;494;48.744;10.106;2023-04-01T07:49:20;8.90;;;5.00;;
1010;SDS011;494;48.744;10.106;2023-04-01T07:51:59;7.83;;;4.70;;
1010;SDS011;494;48.744;10.106;2023-04-01T07:54:37;8.43;;;5.20;;
1010;SDS011;494;48.744;10.106;2023-04-01T07:57:17;9.10;;;4.80;;
1010;SDS011;494;48.744;10.106;2023-04-01T07:59:58;7.70;;;4.90;;
1010;SDS011;494;48.744;10.106;2023-04-01T08:02:38;8.10;;;5.97;;
1010;SDS011;494;48.744;10.106;2023-04-01T08:05:27;7.80;;;5.80;;
1010;SDS011;494;48.744;10.106;2023-04-01T08:08:03;8.00;;;5.80;;
1010;SDS011;494;48.744;10.106;2023-04-01T08:10:43;8.53;;;6.43;;
1010;SDS011;494;48.744;10.106;2023-04-01T08:13:23;8.47;;;6.27;;
1010;SDS011;494;48.744;10.106;2023-04-01T08:16:11;9.97;;;7.60;;
1010;SDS011;494;48.744;10.106;2023-04-01T08:18:50;9.80;;;7.47;;
1010;SDS011;494;48.744;10.106;2023-04-01T08:21:32;8.70;;;7.50;;
1010;SDS011;494;48.744;10.106;2023-04-01T08:24:14;10.30;;;7.70;;
1010;SDS011;494;48.744;10.106;2023-04-01T11:58:05;9.00;;;7.80;;
1010;SDS011;494;48.744;10.106;2023-04-01T12:07:12;9.60;;;7.90;;
1010;SDS011;494;48.744;10.106;2023-04-01T12:09:53;9.03;;;7.50;;
1010;SDS011;494;48.744;10.106;2023-04-01T12:12:38;8.87;;;7.80;;
1010;SDS011;494;48.744;10.106;2023-04-01T12:15:37;10.20;;;8.80;;
1010;SDS011;494;48.744;10.106;2023-04-01T12:18:28;9.20;;;8.03;;
1010;SDS011;494;48.744;10.106;2023-04-01T12:21:09;9.13;;;7.73;;
1010;SDS011;494;48.744;10.106;2023-04-01T12:24:02;9.90;;;8.40;;
1010;SDS011;494;48.744;10.106;2023-04-01T12:27:17;8.93;;;7.70;;
1010;SDS011;494;48.744;10.106;2023-04-01T12:30:12;12.40;;;9.73;;
1010;SDS011;494;48.744;10.106;2023-04-01T12:33:29;8.50;;;6.90;;
1010;SDS011;494;48.744;10.106;2023-04-01T12:36:35;8.80;;;7.37;;
1010;SDS011;494;48.744;10.106;2023-04-01T14:35:11;9.30;;;8.00;;
1010;SDS011;494;48.744;10.106;2023-04-01T14:43:33;8.37;;;7.30;;
1010;SDS011;494;48.744;10.106;2023-04-01T14:51:49;60.23;;;39.97;;
1010;SDS011;494;48.744;10.106;2023-04-01T14:54:29;9.50;;;7.80;;
1010;SDS011;494;48.744;10.106;2023-04-01T14:57:10;8.70;;;7.50;;
1010;SDS011;494;48.744;10.106;2023-04-01T15:00:14;9.73;;;7.80;;
1010;SDS011;494;48.744;10.106;2023-04-01T17:37:20;11.17;;;9.20;;
1010;SDS011;494;48.744;10.106;2023-04-01T17:40:12;10.87;;;9.70;;
1010;SDS011;494;48.744;10.106;2023-04-01T17:42:59;12.80;;;10.60;;
1010;SDS011;494;48.744;10.106;2023-04-01T17:45:42;10.20;;;9.10;;
1010;SDS011;494;48.744;10.106;2023-04-01T17:48:24;9.50;;;8.30;;
1010;SDS011;494;48.744;10.106;2023-04-01T17:51:14;10.00;;;8.50;;
1010;SDS011;494;48.744;10.106;2023-04-01T17:53:59;10.63;;;8.87;;
1010;SDS011;494;48.744;10.106;2023-04-01T17:56:47;10.00;;;8.80;;
1010;SDS011;494;48.744;10.106;2023-04-01T17:59:32;10.67;;;8.67;;
1010;SDS011;494;48.744;10.106;2023-04-01T18:02:11;14.83;;;10.10;;
1010;SDS011;494;48.744;10.106;2023-04-01T18:08:05;10.67;;;9.40;;
1010;SDS011;494;48.744;10.106;2023-04-01T18:10:53;9.10;;;7.97;;
1010;SDS011;494;48.744;10.106;2023-04-01T18:13:39;11.00;;;8.50;;
1010;SDS011;494;48.744;10.106;2023-04-01T18:16:47;11.50;;;10.30;;
1010;SDS011;494;48.744;10.106;2023-04-01T18:19:35;11.60;;;9.87;;
1010;SDS011;494;48.744;10.106;2023-04-01T18:22:23;20.37;;;14.50;;
1010;SDS011;494;48.744;10.106;2023-04-01T18:25:16;28.03;;;19.73;;
1010;SDS011;494;48.744;10.106;2023-04-01T18:28:20;36.17;;;24.83;;
1010;SDS011;494;48.744;10.106;2023-04-01T18:31:14;17.07;;;13.17;;
1010;SDS011;494;48.744;10.106;2023-04-01T18:33:49;11.63;;;10.20;;
1010;SDS011;494;48.744;10.106;2023-04-01T18:36:33;12.70;;;11.40;;
1010;SDS011;494;48.744;10.106;2023-04-01T18:39:12;10.50;;;8.97;;
1010;SDS011;494;48.744;10.106;2023-04-01T18:41:50;14.00;;;10.50;;
1010;SDS011;494;48.744;10.106;2023-04-01T18:44:37;20.90;;;16.77;;
1010;SDS011;494;48.744;10.106;2023-04-01T18:47:15;13.57;;;10.77;;
1010;SDS011;494;48.744;10.106;2023-04-01T18:49:55;11.10;;;9.50;;
1010;SDS011;494;48.744;10.106;2023-04-01T18:52:34;10.50;;;8.80;;
1010;SDS011;494;48.744;10.106;2023-04-01T18:55:22;10.40;;;8.77;;
1010;SDS011;494;48.744;10.106;2023-04-01T18:58:18;9.80;;;8.80;;
1010;SDS011;494;48.744;10.106;2023-04-01T19:01:04;10.50;;;8.87;;
1010;SDS011;494;48.744;10.106;2023-04-01T19:03:55;11.53;;;9.17;;
1010;SDS011;494;48.744;10.106;2023-04-01T19:06:41;12.00;;;8.87;;
1010;SDS011;494;48.744;10.106;2023-04-01T19:09:17;12.80;;;9.13;;
1010;SDS011;494;48.744;10.106;2023-04-01T19:12:05;11.97;;;9.53;;
1010;SDS011;494;48.744;10.106;2023-04-01T19:15:07;15.37;;;9.57;;
1010;SDS011;494;48.744;10.106;2023-04-01T19:18:08;16.63;;;12.47;;
1010;SDS011;494;48.744;10.106;2023-04-01T19:20:59;20.67;;;15.60;;
1010;SDS011;494;48.744;10.106;2023-04-01T19:27:03;26.90;;;19.93;;
1010;SDS011;494;48.744;10.106;2023-04-01T19:29:50;26.73;;;17.87;;
1010;SDS011;494;48.744;10.106;2023-04-01T19:32:41;21.07;;;16.93;;
1010;SDS011;494;48.744;10.106;2023-04-01T19:35:26;24.23;;;17.47;;
1010;SDS011;494;48.744;10.106;2023-04-01T19:38:10;13.13;;;10.10;;
1010;SDS011;494;48.744;10.106;2023-04-01T19:40:51;25.10;;;14.70;;
1010;SDS011;494;48.744;10.106;2023-04-01T19:43:32;29.43;;;16.50;;
1010;SDS011;494;48.744;10.106;2023-04-01T19:46:18;42.10;;;20.33;;
1010;SDS011;494;48.744;10.106;2023-04-01T19:48:59;14.73;;;11.20;;
1010;SDS011;494;48.744;10.106;2023-04-01T19:51:59;11.13;;;9.40;;
1010;SDS011;494;48.744;10.106;2023-04-01T19:54:38;10.70;;;9.60;;
1010;SDS011;494;48.744;10.106;2023-04-01T19:57:21;10.60;;;8.90;;
1010;SDS011;494;48.744;10.106;2023-04-01T20:00:04;10.37;;;9.27;;
1010;SDS011;494;48.744;10.106;2023-04-01T20:02:51;10.17;;;8.83;;
1010;SDS011;494;48.744;10.106;2023-04-01T20:05:41;12.10;;;8.63;;
1010;SDS011;494;48.744;10.106;2023-04-01T20:08:22;10.47;;;9.40;;
1010;SDS011;494;48.744;10.106;2023-04-01T20:11:08;10.43;;;9.33;;
1010;SDS011;494;48.744;10.106;2023-04-01T20:14:01;10.23;;;8.97;;
1010;SDS011;494;48.744;10.106;2023-04-01T20:16:48;9.83;;;8.83;;
1010;SDS011;494;48.744;10.106;2023-04-01T20:19:27;11.80;;;8.73;;
1010;SDS011;494;48.744;10.106;2023-04-01T20:22:08;13.43;;;9.00;;
1010;SDS011;494;48.744;10.106;2023-04-01T20:25:08;9.27;;;8.27;;
1010;SDS011;494;48.744;10.106;2023-04-01T20:27:47;9.73;;;8.57;;
1010;SDS011;494;48.744;10.106;2023-04-01T20:30:27;10.30;;;8.60;;
1010;SDS011;494;48.744;10.106;2023-04-01T20:36:41;9.60;;;8.60;;
1010;SDS011;494;48.744;10.106;2023-04-01T20:39:33;15.40;;;10.90;;
1010;SDS011;494;48.744;10.106;2023-04-01T20:42:49;10.07;;;8.70;;
1010;SDS011;494;48.744;10.106;2023-04-01T20:45:42;10.40;;;8.30;;
1010;SDS011;494;48.744;10.106;2023-04-01T20:51:46;10.83;;;8.77;;
1010;SDS011;494;48.744;10.106;2023-04-01T20:54:30;10.30;;;8.67;;
1010;SDS011;494;48.744;10.106;2023-04-01T20:57:16;10.77;;;9.43;;
1010;SDS011;494;48.744;10.106;2023-04-01T21:00:00;9.70;;;8.70;;
1010;SDS011;494;48.744;10.106;2023-04-01T21:03:06;11.00;;;9.67;;
1010;SDS011;494;48.744;10.106;2023-04-01T21:05:59;10.47;;;8.87;;
1010;SDS011;494;48.744;10.106;2023-04-01T21:08:53;13.73;;;11.20;;
1010;SDS011;494;48.744;10.106;2023-04-01T21:11:39;14.23;;;11.20;;
1010;SDS011;494;48.744;10.106;2023-04-01T21:17:31;11.30;;;9.20;;
1010;SDS011;494;48.744;10.106;2023-04-01T21:20:18;10.47;;;8.57;;
1010;SDS011;494;48.744;10.106;2023-04-01T21:23:17;9.53;;;8.50;;
1010;SDS011;494;48.744;10.106;2023-04-01T21:26:17;10.60;;;8.63;;
1010;SDS011;494;48.744;10.106;2023-04-01T21:32:08;14.63;;;10.80;;
1010;SDS011;494;48.744;10.106;2023-04-01T21:35:05;13.80;;;9.70;;
1010;SDS011;494;48.744;10.106;2023-04-01T21:37:50;12.10;;;10.00;;
1010;SDS011;494;48.744;10.106;2023-04-01T21:41:11;13.70;;;10.00;;
1010;SDS011;494;48.744;10.106;2023-04-01T21:47:23;19.80;;;16.77;;
1010;SDS011;494;48.744;10.106;2023-04-01T21:50:55;14.00;;;11.27;;
1010;SDS011;494;48.744;10.106;2023-04-01T21:54:07;13.70;;;9.67;;
1010;SDS011;494;48.744;10.106;2023-04-01T22:00:33;10.90;;;9.80;;
1010;SDS011;494;48.744;10.106;2023-04-01T22:03:27;12.23;;;9.60;;
1010;SDS011;494;48.744;10.106;2023-04-01T22:06:28;12.50;;;10.47;;
1010;SDS011;494;48.744;10.106;2023-04-01T22:09:10;10.80;;;9.70;;
1010;SDS011;494;48.744;10.106;2023-04-01T22:11:47;12.20;;;10.80;;
1010;SDS011;494;48.744;10.106;2023-04-01T22:14:29;12.97;;;11.50;;
1010;SDS011;494;48.744;10.106;2023-04-01T22:17:08;12.67;;;10.47;;
1010;SDS011;494;48.744;10.106;2023-04-01T22:19:51;15.50;;;12.10;;
1010;SDS011;494;48.744;10.106;2023-04-01T22:22:45;18.13;;;12.20;;
1010;SDS011;494;48.744;10.106;2023-04-01T22:25:29;17.50;;;13.17;;
1010;SDS011;494;48.744;10.106;2023-04-01T22:28:09;14.10;;;11.27;;
1010;SDS011;494;48.744;10.106;2023-04-01T22:30:47;15.70;;;11.80;;
1010;SDS011;494;48.744;10.106;2023-04-01T22:33:21;14.43;;;11.23;;
1010;SDS011;494;48.744;10.106;2023-04-01T22:36:04;14.30;;;11.57;;
1010;SDS011;494;48.744;10.106;2023-04-01T22:38:48;13.43;;;10.77;;
1010;SDS011;494;48.744;10.106;2023-04-01T22:41:42;11.63;;;10.10;;
1010;SDS011;494;48.744;10.106;2023-04-01T22:44:31;12.07;;;10.20;;
1010;SDS011;494;48.744;10.106;2023-04-01T22:47:19;10.87;;;9.13;;
1010;SDS011;494;48.744;10.106;2023-04-01T22:50:04;11.93;;;9.60;;
1010;SDS011;494;48.744;10.106;2023-04-01T22:52:45;11.57;;;10.37;;
1010;SDS011;494;48.744;10.106;2023-04-01T22:55:24;15.33;;;9.80;;
1010;SDS011;494;48.744;10.106;2023-04-01T22:57:58;11.03;;;9.83;;
1010;SDS011;494;48.744;10.106;2023-04-01T23:00:34;10.87;;;9.57;;
1010;SDS011;494;48.744;10.106;2023-04-01T23:03:11;10.43;;;9.00;;
1010;SDS011;494;48.744;10.106;2023-04-01T23:05:46;10.30;;;9.20;;
1010;SDS011;494;48.744;10.106;2023-04-01T23:08:33;11.50;;;8.80;;
1010;SDS011;494;48.744;10.106;2023-04-01T23:11:31;10.10;;;8.90;;
1010;SDS011;494;48.744;10.106;2023-04-01T23:14:15;11.30;;;9.47;;
1010;SDS011;494;48.744;10.106;2023-04-01T23:17:30;13.57;;;9.37;;
1010;SDS011;494;48.744;10.106;2023-04-01T23:20:28;10.30;;;9.07;;
1010;SDS011;494;48.744;10.106;2023-04-01T23:23:20;11.10;;;9.50;;
1010;SDS011;494;48.744;10.106;2023-04-01T23:26:07;11.40;;;10.20;;
1010;SDS011;494;48.744;10.106;2023-04-01T23:28:43;12.37;;;10.27;;
1010;SDS011;494;48.744;10.106;2023-04-01T23:31:30;13.67;;;10.83;;
1010;SDS011;494;48.744;10.106;2023-04-01T23:34:22;13.20;;;10.50;;
1010;SDS011;494;48.744;10.106;2023-04-01T23:36:59;11.07;;;9.50;;
1010;SDS011;494;48.744;10.106;2023-04-01T23:39:34;10.43;;;9.00;;
1010;SDS011;494;48.744;10.106;2023-04-01T23:42:05;12.07;;;10.17;;
1010;SDS011;494;48.744;10.106;2023-04-01T23:44:43;10.70;;;9.60;;
1010;SDS011;494;48.744;10.106;2023-04-01T23:47:14;11.03;;;9.50;;
1010;SDS011;494;48.744;10.106;2023-04-01T23:49:49;12.40;;;10.33;;
1010;SDS011;494;48.744;10.106;2023-04-01T23:52:23;11.67;;;10.03;;
1010;SDS011;494;48.744;10.106;2023-04-01T23:54:57;10.40;;;9.03;;
1010;SDS011;494;48.744;10.106;2023-04-01T23:57:32;12.37;;;10.10;;
